Terminal Aerodrome Forecast
Issued by NWS Flagstaff, AZ

Current Version | Previous Version | Text Only | Print | Product List | Glossary On
Versions: 1 2 3 4 5 6 7 8 9 10 11 12 13 14 15 16 17 18 19 20
000
FTUS45 KFGZ 191700 RRA
TAFFLG
TAF
KFLG 191741Z 1918/2018 VRB06KT P6SM SCT045 BKN070
      TEMPO 1919/1923 VRB10G20KT 5SM -TSRA SCT020 BKN035CB
     FM200200 VRB02KT P6SM SCT060=

USA.gov is the U.S. government's official web portal to all federal, state and local government web resources and services.